Main page
METAR-TAF:

METAR-TAF

Airports :

Omak Airport

Omak, Washington, United States

latitude: 48-27-51N, longitude: 119-31-05W, elevation: 397 m

Current weather observation

The report was made 19 minutes ago, at 04:53 UTC
Wind 4 kt from the Northwest
Temperature 31°C
Humidity 22%
Pressure 1012 hPa
Visibility: 16.1 km
Clear sky

METAR: KOMK 180453Z AUTO 32004KT 10SM CLR 31/07 A2988 RMK AO2 SLP104 T03110067

Time: 22:12 (05:12 UTC)


TAF: missing

Weather observations and forecasts of more than 4000 airports (METAR and TAF reports).

The available stations are represented by yellow and red dots on the map.

Hover mouse over dot to see the name of the station.

Then click to see weather observations and forecasts.

To change the map : click on the green buttons with a black cross to zoom in, on the green button with a dash to zoom out, or on the green arrows for adjacent maps.


METAR-TAF: